map of KNKT home
KNKT - Airport
Location
City:  Cherry Point, North Carolina, United States
Name:Cherry Point MCAS
Old (Alt.):Cunningham Field
ICAO:KNKT
FAA LID:NKT

Details
Type:Airport (Airfield)
Use:Military
Latitude:3454'11"N (34.903169)
Longitude:7652'51"W (-76.880772)
Datum:WGS 1984
Elevation:29 ft (9 m)
Variation:10.11W (WMM2015v2 magnetic declination)
-0.01 annual change
Runways:4
Longest:8979 × 200 ft (2737 × 61 m), paved

Time
Time Zone:UTC-5 (DST-4)
Local Time:

Weather
METAR:KNKT 041354Z 36015KT 9SM OVC041 11/09 A2997 RMK AO2 RAE43 SLP145 P0002 T01110094

Related Locations
Nearby:
Farthest:YAUG: 11757 mi / 18921 km
Augusta [Augusta Airport], WA, AU

Find:

   beyond  
but within

Other Information
Maps:
NOTAMs:
Links:
Sources:

  
  • flag of United States
  • flag of North Carolina
  

Airport Diagram

Airport diagram for KNKT

Airport diagram PDF from FAA

Sectional Chart

Flight Planning
at skyvector.com

Satellite Image

Google Maps Satellite view

 

Copyright © 2004-2019 Karl L. Swartz. All rights reserved.
The Great Circle Mapper name and logo are trademarks of the Great Circle Mapper.
All other trademarks mentioned herein belong to their respective owners.
Please see credits for attibutions and further copyright information.

  Follow gcmap on Facebook Follow gcmap on Twitter GCmap on LinkedIn

hCard Microformat

Geo Microformat